aviador You're here:

KTTN Decoded Metar

TRENTON in NJ, USA
Report Time2018-02-25 22:53:00
UTC Time2018-02-25 23:35:36
Flight Rules lifr LIFR
WindCalm
Visibility9656 m
Phenomena:Mist
Clouds:Overcast 004 Hf
Expected CloudBase > 400 ft AGL from Temp-Dew spread
Ceiling400 ft
Temp07°C (ISA -8)
Dew Point06°C (93% RH)
AAT6.1°C
QNH1015 hPa
Density Alt-663 ft
Elevation194 ft
Report Wrong Elevation
Raw Report
METAR KTTN 252253Z 00000KT 6SM BR OVC004 07/06 A2996 RMK AO2 SLP141
T00720061=

Extra information for KTTN:More info

Metar Taf Metar & Taf Last 4 Metars F.Rules Stats Wind Profile Meteogram Temp Stats Airport Information Weather charts Add Link Nearby VenuesMetar ALERT Operation Metar Decoded Social comments

AIRNAV info for KTTN